Time;durP1;ratioP1;P1;durP2;ratioP2;P2;SDS_P1;SDS_P2;PMS_P1;PMS_P2;Temp;Humidity;BMP_temperature;BMP_pressure;BME280_temperature;BME280_humidity;BME280_pressure;Samples;Min_cycle;Max_cycle;Signal;HPM_P1;HPM_P2
2021/03/18 00:00:13;;;;;;;7.90;5.10;;;;;;;;;;4947449;29;20595;-69
2021/03/18 00:03:19;;;;;;;8.10;4.60;;;;;;;;;;4948320;29;20627;-69
2021/03/18 00:06:24;;;;;;;7.73;4.60;;;;;;;;;;4938197;29;20592;-69
2021/03/18 00:09:28;;;;;;;7.77;3.93;;;;;;;;;;4938668;29;20544;-69
2021/03/18 00:12:32;;;;;;;6.33;4.03;;;;;;;;;;4938876;29;20623;-69
2021/03/18 00:15:38;;;;;;;8.40;4.53;;;;;;;;;;4958019;29;20540;-69
2021/03/18 00:18:48;;;;;;;8.00;4.57;;;;;;;;;;4939950;29;20595;-69
2021/03/18 00:21:52;;;;;;;6.37;4.40;;;;;;;;;;4938374;29;20656;-69
2021/03/18 00:24:56;;;;;;;10.07;5.30;;;;;;;;;;4937604;29;20600;-69
2021/03/18 00:28:01;;;;;;;13.07;5.10;;;;;;;;;;4948352;29;20617;-69
2021/03/18 00:31:08;;;;;;;6.73;4.33;;;;;;;;;;4956623;29;20629;-69
2021/03/18 00:34:12;;;;;;;6.63;4.47;;;;;;;;;;4938251;29;20897;-69
2021/03/18 00:37:16;;;;;;;8.17;4.83;;;;;;;;;;4944095;29;20591;-69
2021/03/18 00:40:35;;;;;;;6.47;4.50;;;;;;;;;;4957433;29;20543;-69
2021/03/18 00:43:41;;;;;;;7.40;5.07;;;;;;;;;;4938261;29;20928;-69
2021/03/18 00:46:46;;;;;;;8.90;4.57;;;;;;;;;;4929902;29;20627;-69
2021/03/18 00:49:50;;;;;;;6.00;4.27;;;;;;;;;;4957096;29;20539;-69
2021/03/18 00:52:55;;;;;;;8.20;4.57;;;;;;;;;;4957230;28;20551;-69
2021/03/18 00:56:01;;;;;;;9.67;5.00;;;;;;;;;;4943964;29;21162;-69
2021/03/18 00:59:05;;;;;;;7.17;4.73;;;;;;;;;;4937239;29;20537;-69
2021/03/18 01:02:09;;;;;;;7.80;4.60;;;;;;;;;;4955061;29;20654;-69
2021/03/18 01:05:18;;;;;;;7.10;4.17;;;;;;;;;;4955980;29;21157;-69
2021/03/18 01:08:26;;;;;;;8.40;5.30;;;;;;;;;;4941698;29;20991;-69
2021/03/18 01:11:35;;;;;;;9.47;5.23;;;;;;;;;;4937629;29;20623;-69
2021/03/18 01:14:39;;;;;;;6.93;4.77;;;;;;;;;;4940796;29;21158;-69
2021/03/18 01:17:44;;;;;;;7.23;4.60;;;;;;;;;;4947800;29;20595;-69
2021/03/18 01:20:48;;;;;;;9.13;4.67;;;;;;;;;;4936691;29;20631;-69
2021/03/18 01:23:52;;;;;;;9.90;5.00;;;;;;;;;;4936772;29;21297;-69
2021/03/18 01:26:56;;;;;;;7.43;4.90;;;;;;;;;;4939343;29;20557;-69
2021/03/18 01:30:01;;;;;;;11.27;4.63;;;;;;;;;;4945920;29;20596;-69
2021/03/18 01:33:06;;;;;;;8.20;5.00;;;;;;;;;;4936290;29;21156;-69
2021/03/18 01:36:12;;;;;;;9.00;5.20;;;;;;;;;;4949802;29;20619;-69
2021/03/18 01:39:16;;;;;;;11.77;5.50;;;;;;;;;;4937321;29;20536;-69
2021/03/18 01:42:21;;;;;;;8.60;4.97;;;;;;;;;;4936941;29;20630;-69
2021/03/18 01:45:25;;;;;;;8.80;4.73;;;;;;;;;;4954786;29;20623;-69
2021/03/18 01:48:29;;;;;;;6.57;4.63;;;;;;;;;;4955733;29;20904;-69
2021/03/18 01:51:33;;;;;;;7.97;5.30;;;;;;;;;;4955849;29;20623;-69
2021/03/18 01:54:39;;;;;;;9.90;5.67;;;;;;;;;;4943866;29;20600;-69
2021/03/18 01:57:43;;;;;;;9.20;5.50;;;;;;;;;;4936834;29;20556;-69
2021/03/18 02:00:51;;;;;;;10.23;5.33;;;;;;;;;;4936805;29;20972;-69
2021/03/18 02:03:56;;;;;;;12.10;5.70;;;;;;;;;;4936583;29;20588;-69
2021/03/18 02:07:01;;;;;;;8.67;5.17;;;;;;;;;;4935865;29;20609;-69
2021/03/18 02:10:08;;;;;;;9.93;6.17;;;;;;;;;;4936806;29;20544;-69
2021/03/18 02:13:15;;;;;;;10.03;6.50;;;;;;;;;;4953086;29;20591;-69
2021/03/18 02:16:19;;;;;;;11.33;6.97;;;;;;;;;;4936444;29;20552;-69
2021/03/18 02:19:57;;;;;;;11.83;6.87;;;;;;;;;;4936631;29;20554;-69
2021/03/18 02:23:21;;;;;;;12.13;7.37;;;;;;;;;;4936600;29;20571;-69
2021/03/18 02:26:37;;;;;;;12.17;7.43;;;;;;;;;;4935751;29;20570;-69
2021/03/18 02:30:21;;;;;;;12.47;7.23;;;;;;;;;;4936463;29;21103;-69
2021/03/18 02:33:51;;;;;;;13.33;7.37;;;;;;;;;;4936857;29;20591;-69
2021/03/18 02:37:03;;;;;;;11.40;6.97;;;;;;;;;;4954727;29;20594;-69
2021/03/18 02:40:16;;;;;;;14.13;7.63;;;;;;;;;;4938003;29;20611;-69
2021/03/18 02:43:23;;;;;;;11.37;7.03;;;;;;;;;;4937108;29;20595;-69
2021/03/18 02:46:29;;;;;;;10.50;6.60;;;;;;;;;;4936263;29;20552;-69
2021/03/18 02:49:38;;;;;;;14.43;8.10;;;;;;;;;;4937132;29;21184;-69
2021/03/18 02:52:45;;;;;;;12.33;8.00;;;;;;;;;;4942543;29;20641;-69
2021/03/18 02:55:50;;;;;;;14.53;7.70;;;;;;;;;;4936174;29;20549;-69
2021/03/18 02:58:56;;;;;;;12.90;7.97;;;;;;;;;;4936038;29;21173;-69
2021/03/18 03:02:04;;;;;;;13.27;8.13;;;;;;;;;;4936870;29;20658;-69
2021/03/18 03:05:09;;;;;;;12.97;8.13;;;;;;;;;;4934924;29;20655;-69
2021/03/18 03:08:15;;;;;;;17.10;9.07;;;;;;;;;;4953565;29;20646;-69
2021/03/18 03:11:22;;;;;;;16.40;8.70;;;;;;;;;;4949019;29;21363;-69
2021/03/18 03:14:28;;;;;;;16.40;8.70;;;;;;;;;;4936004;29;20549;-69
2021/03/18 03:17:33;;;;;;;14.47;7.80;;;;;;;;;;4937658;29;20603;-69
2021/03/18 03:20:38;;;;;;;13.93;8.33;;;;;;;;;;4956761;29;20663;-69
2021/03/18 03:23:44;;;;;;;12.63;7.67;;;;;;;;;;4939539;29;20631;-69
2021/03/18 03:26:52;;;;;;;14.70;8.90;;;;;;;;;;4939690;29;20561;-69
2021/03/18 03:29:58;;;;;;;15.60;8.77;;;;;;;;;;4941175;29;20553;-69
2021/03/18 03:33:05;;;;;;;14.77;8.43;;;;;;;;;;4940235;29;20963;-69
2021/03/18 03:36:10;;;;;;;15.90;8.47;;;;;;;;;;4957599;29;20594;-70
2021/03/18 03:39:16;;;;;;;13.57;8.70;;;;;;;;;;4957849;29;20554;-69
2021/03/18 03:42:20;;;;;;;15.20;8.70;;;;;;;;;;4945943;29;20662;-69
2021/03/18 03:45:25;;;;;;;13.17;8.57;;;;;;;;;;4946529;29;20986;-69
2021/03/18 03:48:32;;;;;;;15.87;9.30;;;;;;;;;;4957696;29;20594;-69
2021/03/18 03:52:07;;;;;;;16.27;9.43;;;;;;;;;;4951856;29;20663;-69
2021/03/18 03:55:11;;;;;;;14.80;8.17;;;;;;;;;;4938984;29;20597;-69
2021/03/18 03:58:33;;;;;;;13.60;8.50;;;;;;;;;;4938979;29;20567;-69
2021/03/18 04:01:41;;;;;;;11.70;8.27;;;;;;;;;;4949846;29;20643;-69
2021/03/18 04:04:47;;;;;;;15.23;8.63;;;;;;;;;;4938728;29;20624;-69
2021/03/18 04:07:57;;;;;;;15.17;7.97;;;;;;;;;;4988867;23;20678;-88
2021/03/18 04:11:02;;;;;;;17.03;9.33;;;;;;;;;;4964870;28;20547;-87
2021/03/18 04:14:10;;;;;;;15.23;8.60;;;;;;;;;;4947882;29;20946;-88
2021/03/18 04:17:16;;;;;;;19.03;9.80;;;;;;;;;;4931509;29;20602;-89
2021/03/18 04:20:22;;;;;;;15.73;9.93;;;;;;;;;;4917992;29;20603;-88
2021/03/18 04:23:28;;;;;;;13.93;9.23;;;;;;;;;;4928211;29;21091;-87
2021/03/18 04:26:37;;;;;;;18.20;9.40;;;;;;;;;;4920166;29;20601;-88
2021/03/18 04:29:42;;;;;;;17.57;9.97;;;;;;;;;;4898200;29;20629;-88
2021/03/18 04:32:48;;;;;;;15.83;10.17;;;;;;;;;;4908659;29;20605;-89
2021/03/18 04:35:54;;;;;;;19.93;9.90;;;;;;;;;;4913794;29;20597;-88
2021/03/18 04:38:59;;;;;;;14.00;9.50;;;;;;;;;;4916756;29;20631;-88
2021/03/18 04:42:06;;;;;;;17.50;10.93;;;;;;;;;;4927687;29;20568;-88
2021/03/18 04:45:11;;;;;;;17.13;11.03;;;;;;;;;;4916330;29;20620;-88
2021/03/18 04:48:18;;;;;;;21.30;10.93;;;;;;;;;;4928189;29;20630;-88
2021/03/18 04:51:22;;;;;;;19.37;10.87;;;;;;;;;;4928114;29;20552;-88
2021/03/18 04:54:26;;;;;;;20.73;11.37;;;;;;;;;;4917088;29;20573;-88
2021/03/18 04:57:31;;;;;;;17.70;11.30;;;;;;;;;;4909559;29;20609;-88
2021/03/18 05:00:37;;;;;;;19.47;11.73;;;;;;;;;;4916457;29;20551;-88
2021/03/18 05:03:45;;;;;;;22.13;12.00;;;;;;;;;;4937746;29;20571;-88
2021/03/18 05:06:53;;;;;;;21.03;12.77;;;;;;;;;;4907639;29;20656;-88
2021/03/18 05:09:57;;;;;;;21.37;11.60;;;;;;;;;;4897309;29;20627;-88
2021/03/18 05:13:05;;;;;;;20.60;12.20;;;;;;;;;;4908620;29;20620;-89
2021/03/18 05:16:09;;;;;;;21.53;11.87;;;;;;;;;;4908417;29;20560;-88
2021/03/18 05:19:15;;;;;;;21.53;13.17;;;;;;;;;;4900851;29;21043;-90
2021/03/18 05:22:21;;;;;;;20.97;12.33;;;;;;;;;;4913109;29;20603;-90
2021/03/18 05:25:29;;;;;;;23.53;11.97;;;;;;;;;;4915992;29;21185;-90
2021/03/18 05:28:34;;;;;;;22.43;12.70;;;;;;;;;;4915564;29;20672;-89
2021/03/18 05:31:39;;;;;;;23.40;12.47;;;;;;;;;;4915662;29;20551;-90
2021/03/18 05:34:43;;;;;;;21.00;13.03;;;;;;;;;;4907132;29;20980;-89
2021/03/18 05:37:48;;;;;;;22.07;12.57;;;;;;;;;;4907013;29;20644;-89
2021/03/18 05:40:57;;;;;;;20.97;12.63;;;;;;;;;;4895973;29;20624;-88
2021/03/18 05:44:07;;;;;;;19.73;12.23;;;;;;;;;;4922382;29;20604;-88
2021/03/18 05:47:11;;;;;;;18.73;11.30;;;;;;;;;;4926113;29;20607;-87
2021/03/18 05:50:18;;;;;;;21.30;11.57;;;;;;;;;;4915119;29;20555;-87
2021/03/18 05:53:25;;;;;;;20.40;12.13;;;;;;;;;;4915178;29;20622;-85
2021/03/18 05:56:29;;;;;;;19.23;12.10;;;;;;;;;;4906155;29;21197;-86
2021/03/18 05:59:35;;;;;;;28.20;16.23;;;;;;;;;;4917667;29;20632;-86
2021/03/18 06:02:40;;;;;;;21.07;12.93;;;;;;;;;;4911896;29;20675;-87
2021/03/18 06:05:46;;;;;;;23.00;13.17;;;;;;;;;;4912491;29;20651;-87
2021/03/18 06:08:50;;;;;;;26.70;16.27;;;;;;;;;;4914959;29;21236;-87
2021/03/18 06:11:54;;;;;;;24.43;13.80;;;;;;;;;;4914515;29;20601;-86
2021/03/18 06:14:59;;;;;;;24.13;13.87;;;;;;;;;;4925126;29;20599;-86
2021/03/18 06:18:03;;;;;;;23.90;13.50;;;;;;;;;;4934475;29;20650;-87
2021/03/18 06:21:07;;;;;;;29.50;14.97;;;;;;;;;;4926285;29;20632;-88
2021/03/18 06:24:12;;;;;;;25.60;14.50;;;;;;;;;;4919266;29;20619;-88
2021/03/18 06:27:21;;;;;;;32.80;20.63;;;;;;;;;;4925489;29;20710;-88
2021/03/18 06:30:34;;;;;;;30.37;18.87;;;;;;;;;;4917284;29;20552;-88
2021/03/18 06:33:44;;;;;;;29.00;16.70;;;;;;;;;;4914397;29;20563;-88
2021/03/18 06:36:48;;;;;;;33.97;20.63;;;;;;;;;;4914762;29;21083;-88
2021/03/18 06:39:52;;;;;;;32.87;19.50;;;;;;;;;;4914053;29;20624;-88
2021/03/18 06:43:01;;;;;;;29.00;17.27;;;;;;;;;;4914436;29;20559;-88
2021/03/18 06:46:20;;;;;;;23.33;14.40;;;;;;;;;;4914765;29;20601;-88
2021/03/18 06:49:26;;;;;;;27.30;16.23;;;;;;;;;;4913714;29;20635;-88
2021/03/18 06:52:40;;;;;;;27.20;15.47;;;;;;;;;;4924884;29;20540;-88
2021/03/18 06:55:44;;;;;;;61.83;30.37;;;;;;;;;;4925244;29;20547;-89
2021/03/18 06:58:49;;;;;;;35.30;19.80;;;;;;;;;;4935469;29;20634;-88
2021/03/18 07:02:13;;;;;;;48.70;28.13;;;;;;;;;;4914280;29;20551;-88
2021/03/18 07:05:20;;;;;;;67.17;31.63;;;;;;;;;;4924734;29;20540;-88
2021/03/18 07:08:31;;;;;;;81.73;36.33;;;;;;;;;;4924346;29;20662;-89
2021/03/18 07:11:47;;;;;;;67.33;31.20;;;;;;;;;;4924674;29;20560;-88
2021/03/18 07:14:53;;;;;;;37.83;19.67;;;;;;;;;;4924799;29;20924;-88
2021/03/18 07:18:00;;;;;;;101.00;45.67;;;;;;;;;;4916060;29;20639;-87
2021/03/18 07:21:13;;;;;;;60.83;30.97;;;;;;;;;;4912359;29;21157;-87
2021/03/18 07:24:25;;;;;;;80.87;37.47;;;;;;;;;;4913672;29;20668;-87
2021/03/18 07:27:42;;;;;;;107.87;46.67;;;;;;;;;;4916193;29;20604;-87
2021/03/18 07:30:46;;;;;;;89.57;40.30;;;;;;;;;;4915067;29;20627;-87
2021/03/18 07:33:50;;;;;;;74.90;34.27;;;;;;;;;;4924077;29;20611;-87
2021/03/18 07:36:56;;;;;;;96.37;38.97;;;;;;;;;;4924583;29;20551;-87
2021/03/18 07:40:01;;;;;;;151.53;53.73;;;;;;;;;;4924334;29;20612;-87
2021/03/18 07:43:07;;;;;;;38.13;20.00;;;;;;;;;;4913895;29;20552;-87
2021/03/18 07:46:17;;;;;;;61.30;28.17;;;;;;;;;;4913457;29;20963;-87
2021/03/18 07:49:24;;;;;;;27.20;16.30;;;;;;;;;;4913299;29;20638;-87
2021/03/18 07:52:29;;;;;;;19.87;12.87;;;;;;;;;;4935460;29;21082;-86
2021/03/18 07:55:35;;;;;;;20.53;12.93;;;;;;;;;;4924653;29;20571;-87
2021/03/18 07:58:45;;;;;;;18.30;12.23;;;;;;;;;;4935219;29;20638;-86
2021/03/18 08:01:49;;;;;;;20.77;12.63;;;;;;;;;;4913477;29;21098;-86
2021/03/18 08:04:54;;;;;;;18.77;12.27;;;;;;;;;;4927900;29;20555;-87
2021/03/18 08:07:58;;;;;;;22.27;12.67;;;;;;;;;;4927431;29;21240;-86
2021/03/18 08:11:08;;;;;;;20.67;12.20;;;;;;;;;;4916954;29;20577;-86
2021/03/18 08:14:14;;;;;;;21.67;13.33;;;;;;;;;;4916805;29;20555;-86
2021/03/18 08:17:28;;;;;;;20.77;12.93;;;;;;;;;;4938372;29;20603;-86
2021/03/18 08:20:58;;;;;;;19.93;12.67;;;;;;;;;;4916762;29;20586;-87
2021/03/18 08:24:06;;;;;;;19.53;12.77;;;;;;;;;;4927508;29;20551;-88
2021/03/18 08:27:10;;;;;;;27.83;16.83;;;;;;;;;;4916433;29;20963;-88
2021/03/18 08:30:21;;;;;;;21.37;12.47;;;;;;;;;;4919728;29;20627;-87
2021/03/18 08:33:39;;;;;;;18.33;11.23;;;;;;;;;;4915525;29;21110;-88
2021/03/18 08:36:51;;;;;;;18.67;11.23;;;;;;;;;;4916471;29;20552;-87
2021/03/18 08:39:55;;;;;;;22.97;14.50;;;;;;;;;;4916302;29;20553;-85
2021/03/18 08:43:02;;;;;;;16.27;11.13;;;;;;;;;;4937140;29;20591;-85
2021/03/18 08:46:39;;;;;;;31.47;19.10;;;;;;;;;;4906737;29;20619;-84
2021/03/18 08:49:45;;;;;;;23.63;13.30;;;;;;;;;;4918629;29;20629;-85
2021/03/18 08:52:51;;;;;;;216.63;74.80;;;;;;;;;;4907825;29;20208;-86
2021/03/18 08:55:55;;;;;;;52.63;32.60;;;;;;;;;;4915072;29;20223;-86
2021/03/18 08:59:00;;;;;;;21.77;14.40;;;;;;;;;;4907655;29;20238;-86
2021/03/18 09:02:09;;;;;;;17.70;12.40;;;;;;;;;;4910213;29;20217;-86
2021/03/18 09:05:18;;;;;;;17.37;11.90;;;;;;;;;;4907585;29;20211;-86
2021/03/18 09:08:35;;;;;;;29.63;22.13;;;;;;;;;;4907362;29;20253;-86
2021/03/18 09:11:49;;;;;;;23.63;17.23;;;;;;;;;;4914996;28;20193;-83
2021/03/18 09:14:54;;;;;;;16.77;10.97;;;;;;;;;;4910384;29;20203;-86
2021/03/18 09:18:02;;;;;;;12.37;8.87;;;;;;;;;;4940007;28;20220;-89
2021/03/18 13:21:24;;;;;;;9.60;4.20;;;;;;;;;;4971679;28;20214;-84
2021/03/18 13:24:28;;;;;;;9.50;5.10;;;;;;;;;;4957633;28;20589;-84
2021/03/18 13:27:32;;;;;;;6.60;4.10;;;;;;;;;;4970589;28;20622;-84
2021/03/18 13:30:38;;;;;;;6.63;4.23;;;;;;;;;;4977881;28;20686;-85
2021/03/18 13:33:42;;;;;;;7.83;4.70;;;;;;;;;;4962321;28;20601;-84
2021/03/18 13:41:37;;;;;;;5.63;4.20;;;;;;;;;;4976973;28;20558;-86
2021/03/18 13:45:32;;;;;;;11.37;4.87;;;;;;;;;;4961769;28;20609;-86
2021/03/18 13:48:37;;;;;;;6.50;4.37;;;;;;;;;;4961431;28;20668;-85
2021/03/18 13:51:41;;;;;;;8.30;4.70;;;;;;;;;;4961530;28;20538;-87
2021/03/18 13:54:45;;;;;;;6.83;4.30;;;;;;;;;;4954316;28;20186;-86
2021/03/18 13:57:50;;;;;;;6.50;4.10;;;;;;;;;;4963548;28;20214;-86
2021/03/18 14:00:54;;;;;;;5.57;4.03;;;;;;;;;;4982567;28;20182;-87
2021/03/18 14:03:59;;;;;;;5.17;3.80;;;;;;;;;;4960641;28;20194;-87
2021/03/18 14:07:03;;;;;;;5.77;4.00;;;;;;;;;;4960719;28;20186;-88
2021/03/18 14:11:04;;;;;;;8.80;3.80;;;;;;;;;;4940890;28;20201;-88
2021/03/18 14:14:09;;;;;;;6.97;5.20;;;;;;;;;;4953176;28;20194;-89
2021/03/18 14:17:13;;;;;;;6.20;3.90;;;;;;;;;;4985731;28;20198;-90
2021/03/18 14:20:24;;;;;;;6.57;4.10;;;;;;;;;;4983176;28;20214;-89
2021/03/18 14:23:28;;;;;;;9.53;6.30;;;;;;;;;;4966813;28;20535;-91
2021/03/18 14:26:35;;;;;;;7.90;5.63;;;;;;;;;;4952652;28;20183;-91
2021/03/18 14:29:50;;;;;;;6.27;4.07;;;;;;;;;;4957327;28;20222;-88
2021/03/18 14:32:54;;;;;;;4.33;3.60;;;;;;;;;;4970006;28;20194;-89
2021/03/18 14:35:59;;;;;;;3.13;2.77;;;;;;;;;;4971532;28;20190;-89
2021/03/18 14:39:05;;;;;;;8.97;4.90;;;;;;;;;;4960208;28;20226;-89
2021/03/18 14:42:09;;;;;;;6.37;4.40;;;;;;;;;;4963305;28;20183;-89
2021/03/18 14:45:14;;;;;;;7.17;5.07;;;;;;;;;;4941272;28;20183;-89
2021/03/18 14:48:18;;;;;;;8.43;5.67;;;;;;;;;;4952314;28;20693;-89
2021/03/18 14:51:25;;;;;;;10.40;5.60;;;;;;;;;;4961411;28;20210;-90
2021/03/18 14:54:30;;;;;;;12.17;7.33;;;;;;;;;;4971269;28;20198;-89
2021/03/18 14:57:34;;;;;;;6.70;5.20;;;;;;;;;;4972749;28;20202;-88
2021/03/18 15:00:38;;;;;;;7.07;5.50;;;;;;;;;;4972313;28;20198;-89
2021/03/18 15:03:43;;;;;;;6.83;5.20;;;;;;;;;;4958116;28;20198;-89
2021/03/18 15:06:47;;;;;;;9.37;5.47;;;;;;;;;;4993660;28;20649;-87
2021/03/18 15:09:51;;;;;;;6.13;4.80;;;;;;;;;;4960214;28;20218;-87
2021/03/18 15:12:57;;;;;;;10.13;5.73;;;;;;;;;;4984522;28;20202;-88
2021/03/18 15:16:03;;;;;;;7.27;5.10;;;;;;;;;;4986106;28;20190;-89
2021/03/18 15:19:12;;;;;;;7.77;5.13;;;;;;;;;;5014194;22;20209;-72
2021/03/18 15:22:16;;;;;;;8.77;6.30;;;;;;;;;;4924316;29;20244;-74
2021/03/18 15:25:22;;;;;;;6.67;5.07;;;;;;;;;;4931006;29;20189;-74
2021/03/18 15:28:26;;;;;;;6.33;4.37;;;;;;;;;;4939440;29;20216;-74
2021/03/18 15:31:31;;;;;;;5.87;4.00;;;;;;;;;;4939737;29;20219;-75
2021/03/18 15:34:35;;;;;;;5.63;4.07;;;;;;;;;;4939675;29;20525;-76
2021/03/18 15:37:41;;;;;;;7.20;3.70;;;;;;;;;;4926731;29;20215;-76
2021/03/18 15:40:45;;;;;;;4.53;3.60;;;;;;;;;;4920023;29;20225;-76
2021/03/18 15:43:50;;;;;;;6.63;4.80;;;;;;;;;;4921725;29;20201;-76
2021/03/18 15:46:54;;;;;;;7.27;5.23;;;;;;;;;;4921513;29;20192;-76
2021/03/18 15:49:59;;;;;;;11.10;6.87;;;;;;;;;;4920494;29;20185;-77
2021/03/18 15:53:04;;;;;;;6.57;4.50;;;;;;;;;;4941009;23;20651;-75
2021/03/18 15:56:09;;;;;;;7.63;4.00;;;;;;;;;;4978290;22;20238;-75
2021/03/18 15:59:12;;;;;;;5.23;3.80;;;;;;;;;;4984697;28;20190;-75
2021/03/18 16:02:17;;;;;;;7.33;5.17;;;;;;;;;;4992945;28;20219;-75
2021/03/18 16:05:25;;;;;;;6.93;4.67;;;;;;;;;;4977598;28;20194;-75
2021/03/18 16:08:30;;;;;;;13.87;8.03;;;;;;;;;;4976589;28;20222;-75
2021/03/18 16:11:34;;;;;;;7.87;5.10;;;;;;;;;;4977121;28;20226;-75
2021/03/18 16:14:38;;;;;;;11.77;7.40;;;;;;;;;;4971263;28;20649;-75
2021/03/18 16:17:42;;;;;;;19.63;12.10;;;;;;;;;;4972867;28;20195;-75
2021/03/18 16:20:46;;;;;;;13.60;6.40;;;;;;;;;;4977275;28;20237;-75
2021/03/18 16:23:51;;;;;;;5.83;4.40;;;;;;;;;;4964374;28;20254;-75
2021/03/18 16:26:56;;;;;;;6.50;4.30;;;;;;;;;;4950765;28;20195;-74
2021/03/18 16:30:00;;;;;;;7.57;4.30;;;;;;;;;;4960929;28;20219;-75
2021/03/18 16:33:09;;;;;;;8.40;4.77;;;;;;;;;;4976880;28;20203;-75
2021/03/18 16:36:13;;;;;;;5.87;4.30;;;;;;;;;;4993833;28;20546;-75
2021/03/18 16:39:17;;;;;;;8.23;4.63;;;;;;;;;;4978033;28;20620;-75
2021/03/18 16:42:22;;;;;;;6.40;3.87;;;;;;;;;;4964835;28;20222;-74
2021/03/18 16:45:27;;;;;;;5.63;4.03;;;;;;;;;;4953954;28;20539;-75
2021/03/18 16:48:32;;;;;;;8.90;4.57;;;;;;;;;;4971132;28;20629;-74
2021/03/18 16:51:36;;;;;;;12.50;5.40;;;;;;;;;;4957093;29;20634;-75
2021/03/18 16:54:40;;;;;;;18.13;11.17;;;;;;;;;;4968334;28;21162;-72
2021/03/18 16:57:44;;;;;;;108.93;43.20;;;;;;;;;;4995765;28;20627;-71
2021/03/18 17:00:48;;;;;;;23.97;14.00;;;;;;;;;;4975654;28;20652;-71
2021/03/18 17:03:52;;;;;;;11.03;8.13;;;;;;;;;;4965499;28;21179;-72
2021/03/18 17:06:56;;;;;;;17.83;10.27;;;;;;;;;;4984395;28;20589;-71
2021/03/18 17:10:05;;;;;;;12.57;8.67;;;;;;;;;;4974680;28;20645;-71
2021/03/18 17:13:10;;;;;;;12.60;7.33;;;;;;;;;;4995650;28;21103;-72
2021/03/18 17:16:14;;;;;;;11.87;7.00;;;;;;;;;;4990568;28;20594;-71
2021/03/18 17:19:29;;;;;;;17.57;12.43;;;;;;;;;;4976348;28;20547;-72
2021/03/18 17:22:33;;;;;;;57.43;28.23;;;;;;;;;;4956601;29;20629;-72
2021/03/18 17:25:38;;;;;;;147.60;62.43;;;;;;;;;;4968077;28;20961;-72
2021/03/18 17:28:42;;;;;;;87.50;38.63;;;;;;;;;;4991902;28;20660;-71
2021/03/18 17:31:47;;;;;;;57.50;27.40;;;;;;;;;;4987654;28;21255;-71
2021/03/18 17:34:51;;;;;;;19.40;10.70;;;;;;;;;;4961576;28;20589;-71
2021/03/18 17:37:57;;;;;;;9.67;6.07;;;;;;;;;;4964306;28;20648;-72
2021/03/18 17:41:02;;;;;;;5.93;4.90;;;;;;;;;;4955776;29;21188;-72
2021/03/18 17:44:06;;;;;;;5.80;4.13;;;;;;;;;;4969662;28;20590;-71
2021/03/18 17:47:13;;;;;;;10.50;6.00;;;;;;;;;;4981415;28;20601;-72
2021/03/18 17:50:17;;;;;;;9.20;5.70;;;;;;;;;;4980770;28;20630;-72
2021/03/18 17:53:28;;;;;;;8.27;5.53;;;;;;;;;;4980734;28;21136;-71
2021/03/18 17:56:32;;;;;;;15.33;7.57;;;;;;;;;;4994034;28;20617;-71
2021/03/18 17:59:36;;;;;;;63.10;33.47;;;;;;;;;;4994988;28;20589;-71
2021/03/18 18:02:41;;;;;;;67.03;34.73;;;;;;;;;;4977681;28;20649;-72
2021/03/18 18:06:00;;;;;;;57.33;26.00;;;;;;;;;;4965521;28;21177;-71
2021/03/18 18:09:05;;;;;;;365.10;120.07;;;;;;;;;;4956045;29;20598;-72
2021/03/18 18:12:09;;;;;;;288.50;103.37;;;;;;;;;;4955637;29;20993;-71
2021/03/18 18:15:16;;;;;;;59.03;29.73;;;;;;;;;;4955919;28;20915;-72
2021/03/18 18:18:20;;;;;;;27.53;17.00;;;;;;;;;;4992597;28;20620;-72
2021/03/18 18:21:25;;;;;;;35.07;19.53;;;;;;;;;;4994215;28;20681;-72
2021/03/18 18:24:29;;;;;;;24.07;14.77;;;;;;;;;;4994277;28;20550;-72
2021/03/18 18:27:33;;;;;;;8.87;5.93;;;;;;;;;;4977377;28;20625;-72
2021/03/18 18:30:38;;;;;;;6.97;5.10;;;;;;;;;;4973325;28;20669;-72
2021/03/18 18:33:42;;;;;;;8.13;5.07;;;;;;;;;;4976580;28;20586;-72
2021/03/18 18:36:46;;;;;;;7.07;5.03;;;;;;;;;;4991848;28;20586;-71
2021/03/18 18:39:50;;;;;;;14.37;8.77;;;;;;;;;;4970994;28;20597;-72
2021/03/18 18:42:55;;;;;;;43.43;23.97;;;;;;;;;;4985221;28;20590;-71
2021/03/18 18:45:59;;;;;;;15.27;10.13;;;;;;;;;;4962707;28;20625;-71
2021/03/18 18:49:05;;;;;;;9.40;7.77;;;;;;;;;;4968383;28;20996;-74
2021/03/18 18:52:09;;;;;;;8.30;6.37;;;;;;;;;;4967733;28;21223;-73
2021/03/18 18:55:15;;;;;;;6.33;5.13;;;;;;;;;;4962375;28;20602;-73
2021/03/18 18:58:19;;;;;;;5.73;4.53;;;;;;;;;;4983229;28;20590;-73
2021/03/18 19:01:24;;;;;;;7.03;5.13;;;;;;;;;;4987910;28;20640;-72
2021/03/18 19:04:28;;;;;;;35.67;18.40;;;;;;;;;;4994062;28;20546;-72
2021/03/18 19:07:32;;;;;;;85.03;40.83;;;;;;;;;;4956769;28;20543;-73
2021/03/18 19:10:40;;;;;;;47.27;24.07;;;;;;;;;;4993345;28;20652;-73
2021/03/18 19:13:45;;;;;;;59.43;30.80;;;;;;;;;;4993802;28;20572;-73
2021/03/18 19:16:49;;;;;;;38.40;20.50;;;;;;;;;;4972099;28;20615;-73
2021/03/18 19:19:54;;;;;;;18.53;10.57;;;;;;;;;;4977139;28;20589;-74
2021/03/18 19:22:58;;;;;;;11.57;7.90;;;;;;;;;;4981875;28;20953;-77
2021/03/18 19:26:03;;;;;;;10.57;6.87;;;;;;;;;;4963875;28;20605;-78
2021/03/18 19:29:07;;;;;;;13.40;8.60;;;;;;;;;;4967115;28;20965;-78
2021/03/18 19:32:11;;;;;;;18.43;10.13;;;;;;;;;;4943958;28;20646;-75
2021/03/18 19:35:17;;;;;;;10.33;7.03;;;;;;;;;;4970476;28;20593;-75
2021/03/18 19:38:22;;;;;;;139.60;62.77;;;;;;;;;;4962012;28;20626;-75
2021/03/18 19:41:27;;;;;;;172.37;76.10;;;;;;;;;;4949940;28;20673;-75
2021/03/18 19:44:32;;;;;;;272.07;106.10;;;;;;;;;;4942935;29;21105;-75
2021/03/18 19:47:38;;;;;;;79.90;35.97;;;;;;;;;;4942994;29;20570;-75
2021/03/18 19:50:45;;;;;;;81.57;37.97;;;;;;;;;;4973405;28;20672;-75
2021/03/18 19:53:50;;;;;;;71.37;33.23;;;;;;;;;;4972737;28;21158;-75
2021/03/18 19:56:54;;;;;;;98.33;44.07;;;;;;;;;;4983233;28;20646;-76
2021/03/18 19:59:58;;;;;;;94.43;40.00;;;;;;;;;;4964683;28;20601;-75
2021/03/18 20:03:03;;;;;;;79.63;41.77;;;;;;;;;;4977504;28;20553;-75
2021/03/18 20:06:07;;;;;;;20.50;12.13;;;;;;;;;;4958009;29;21097;-74
2021/03/18 20:09:11;;;;;;;7.87;6.03;;;;;;;;;;4946516;29;20552;-74
2021/03/18 20:12:16;;;;;;;11.07;6.33;;;;;;;;;;4958004;29;20963;-74
2021/03/18 20:15:20;;;;;;;9.77;6.60;;;;;;;;;;4962485;28;21152;-75
2021/03/18 20:18:24;;;;;;;9.80;6.63;;;;;;;;;;4979078;28;20589;-74
2021/03/18 20:21:28;;;;;;;10.20;6.63;;;;;;;;;;4996668;28;20616;-75
2021/03/18 20:24:32;;;;;;;8.67;7.13;;;;;;;;;;4996916;28;20546;-75
2021/03/18 20:27:38;;;;;;;10.73;7.13;;;;;;;;;;4996635;28;21147;-74
2021/03/18 20:30:46;;;;;;;11.10;7.13;;;;;;;;;;4970455;28;20978;-75
2021/03/18 20:33:51;;;;;;;13.07;7.10;;;;;;;;;;4976296;28;20938;-73
2021/03/18 20:36:55;;;;;;;11.63;7.17;;;;;;;;;;4967914;28;20603;-74
2021/03/18 20:40:00;;;;;;;9.87;7.00;;;;;;;;;;4957705;29;21058;-74
2021/03/18 20:43:04;;;;;;;10.60;7.30;;;;;;;;;;4982566;28;20585;-73
2021/03/18 20:46:08;;;;;;;9.37;6.93;;;;;;;;;;4996462;28;20541;-74
2021/03/18 20:49:13;;;;;;;11.80;7.53;;;;;;;;;;4977347;28;20590;-74
2021/03/18 20:52:20;;;;;;;10.53;6.97;;;;;;;;;;4987945;28;21226;-74
2021/03/18 20:55:25;;;;;;;12.17;7.60;;;;;;;;;;4986838;28;21163;-74
2021/03/18 20:58:29;;;;;;;12.47;7.67;;;;;;;;;;4981871;28;20597;-74
2021/03/18 21:01:33;;;;;;;10.83;7.83;;;;;;;;;;4976352;28;20644;-74
2021/03/18 21:04:37;;;;;;;11.57;8.20;;;;;;;;;;4994620;28;20608;-74
2021/03/18 21:07:42;;;;;;;12.80;8.17;;;;;;;;;;4977203;28;20625;-74
2021/03/18 21:10:46;;;;;;;14.07;8.97;;;;;;;;;;4963963;28;20661;-74
2021/03/18 21:13:50;;;;;;;11.60;8.30;;;;;;;;;;4993967;28;20617;-73
2021/03/18 21:16:54;;;;;;;12.87;8.80;;;;;;;;;;4977346;28;20625;-74
2021/03/18 21:19:58;;;;;;;12.07;8.57;;;;;;;;;;4964415;28;21065;-73
2021/03/18 21:23:03;;;;;;;11.10;7.60;;;;;;;;;;4945226;29;20540;-74
2021/03/18 21:26:07;;;;;;;12.77;8.70;;;;;;;;;;4978161;28;20933;-74
2021/03/18 21:29:12;;;;;;;12.60;8.50;;;;;;;;;;4995569;28;20546;-73
2021/03/18 21:32:17;;;;;;;14.10;8.83;;;;;;;;;;4968119;28;20638;-74
2021/03/18 21:35:22;;;;;;;14.23;9.33;;;;;;;;;;4963841;28;20547;-74
2021/03/18 21:38:26;;;;;;;13.70;8.53;;;;;;;;;;4944854;29;20536;-74
2021/03/18 21:41:31;;;;;;;13.13;8.73;;;;;;;;;;4984503;28;20637;-73
2021/03/18 21:44:36;;;;;;;12.93;8.43;;;;;;;;;;4983346;28;20546;-74
2021/03/18 21:47:40;;;;;;;12.57;8.60;;;;;;;;;;4995074;28;20558;-74
2021/03/18 21:50:44;;;;;;;14.23;8.43;;;;;;;;;;4982967;28;20649;-74
2021/03/18 21:53:48;;;;;;;14.03;9.20;;;;;;;;;;4994755;28;20597;-74
2021/03/18 21:56:52;;;;;;;13.33;8.13;;;;;;;;;;4994760;28;20628;-74
2021/03/18 21:59:56;;;;;;;12.40;8.27;;;;;;;;;;4994648;28;20593;-74
2021/03/18 22:03:02;;;;;;;11.87;7.70;;;;;;;;;;4982713;28;20557;-74
2021/03/18 22:06:06;;;;;;;13.50;8.43;;;;;;;;;;4994969;28;20546;-73
2021/03/18 22:09:10;;;;;;;10.90;7.50;;;;;;;;;;4982632;28;20542;-74
2021/03/18 22:12:14;;;;;;;11.43;8.23;;;;;;;;;;4994457;28;20617;-74
2021/03/18 22:15:19;;;;;;;15.93;9.13;;;;;;;;;;4994431;28;20605;-74
2021/03/18 22:18:23;;;;;;;14.27;9.47;;;;;;;;;;4994497;28;20554;-74
2021/03/18 22:21:27;;;;;;;15.77;9.63;;;;;;;;;;4994263;28;20617;-74
2021/03/18 22:24:45;;;;;;;14.00;9.60;;;;;;;;;;4994430;28;20554;-74